createdAt,value
2019-04-06T00:00:32.057Z,95882.83
2019-04-06T00:05:31.158Z,95881.13
2019-04-06T00:10:27.386Z,95882.01
2019-04-06T00:15:39.270Z,95893.14
2019-04-06T00:20:37.894Z,95886.06
2019-04-06T00:25:43.758Z,95887.33
2019-04-06T00:30:43.081Z,95878.58
2019-04-06T00:35:39.021Z,95876.73
2019-04-06T00:40:35.064Z,95872.79
2019-04-06T00:45:31.239Z,95869.81
2019-04-06T00:50:27.156Z,95869.34
2019-04-06T00:55:23.146Z,95872.54
2019-04-06T01:00:19.570Z,95869.70
2019-04-06T01:05:15.734Z,95878.63
2019-04-06T01:10:11.774Z,95874.25
2019-04-06T01:15:08.578Z,95876.99
2019-04-06T01:20:05.059Z,95879.91
2019-04-06T01:25:00.872Z,95880.31
2019-04-06T01:29:56.907Z,95881.93
2019-04-06T01:34:52.907Z,95879.73
2019-04-06T01:39:48.675Z,95877.94
2019-04-06T01:44:44.742Z,95874.34
2019-04-06T01:49:40.859Z,95874.69
2019-04-06T01:54:38.038Z,95869.73
2019-04-06T01:59:33.840Z,95875.27
2019-04-06T02:04:29.645Z,95874.71
2019-04-06T02:09:25.510Z,95870.44
2019-04-06T02:14:21.430Z,95870.12
2019-04-06T02:19:17.240Z,95872.14
2019-04-06T02:24:13.166Z,95876.77
2019-04-06T02:29:15.781Z,95870.95
2019-04-06T02:34:25.095Z,95864.78
2019-04-06T02:39:31.297Z,95871.84
2019-04-06T02:44:27.584Z,95864.66
2019-04-06T02:49:23.506Z,95866.24
2019-04-06T02:54:19.302Z,95864.97
2019-04-06T02:59:15.229Z,95872.06
2019-04-06T03:04:11.172Z,95869.77
2019-04-06T03:09:11.014Z,95875.50
2019-04-06T03:14:05.367Z,95868.48
2019-04-06T03:19:01.310Z,95866.45
2019-04-06T03:23:57.237Z,95861.81
2019-04-06T03:28:53.293Z,95856.55
2019-04-06T03:33:49.288Z,95858.20
2019-04-06T03:38:45.180Z,95853.70
2019-04-06T03:43:41.035Z,95866.82
2019-04-06T03:48:36.855Z,95869.77
2019-04-06T03:53:33.834Z,95859.51
2019-04-06T03:58:29.878Z,95866.61
2019-04-06T04:03:25.906Z,95859.73
2019-04-06T04:08:22.115Z,95857.61
2019-04-06T04:13:18.032Z,95860.98
2019-04-06T04:18:13.820Z,95858.10
2019-04-06T04:23:09.800Z,95862.91
2019-04-06T04:28:05.701Z,95858.75
2019-04-06T04:33:01.917Z,95863.10
2019-04-06T04:37:57.830Z,95863.17
2019-04-06T04:42:57.103Z,95865.25
2019-04-06T04:47:53.113Z,95854.30
2019-04-06T04:52:48.991Z,95862.18
2019-04-06T04:57:51.847Z,95873.64
2019-04-06T05:02:53.977Z,95865.05
2019-04-06T05:07:50.034Z,95873.64
2019-04-06T05:12:45.905Z,95871.03
2019-04-06T05:17:41.687Z,95880.24
2019-04-06T05:22:37.651Z,95881.47
2019-04-06T05:27:33.619Z,95874.17
2019-04-06T05:32:29.734Z,95879.68
2019-04-06T05:37:25.731Z,95881.23
2019-04-06T05:42:21.577Z,95888.88
2019-04-06T05:47:17.581Z,95882.52
2019-04-06T05:52:13.423Z,95882.88
2019-04-06T05:57:09.401Z,95893.39
2019-04-06T06:02:05.388Z,95888.02
2019-04-06T06:07:01.264Z,95893.48
2019-04-06T06:11:57.126Z,95896.33
2019-04-06T06:16:53.235Z,95895.53
2019-04-06T06:21:50.129Z,95894.23
2019-04-06T06:26:45.935Z,95891.16
2019-04-06T06:31:41.767Z,95890.39
2019-04-06T06:36:37.721Z,95879.59
2019-04-06T06:41:33.619Z,95881.46
2019-04-06T06:46:29.473Z,95879.60
2019-04-06T06:51:25.367Z,95876.35
2019-04-06T06:56:21.174Z,95875.66
2019-04-06T07:01:16.981Z,95874.02
2019-04-06T07:06:12.925Z,95870.19
2019-04-06T07:11:08.838Z,95863.70
2019-04-06T07:16:04.847Z,95866.25
2019-04-06T07:21:00.670Z,95855.13
2019-04-06T07:26:02.102Z,95849.63
2019-04-06T07:31:01.805Z,95861.57
2019-04-06T07:36:03.461Z,95844.02
2019-04-06T07:41:23.096Z,95848.72
2019-04-06T07:46:25.665Z,95837.98
2019-04-06T07:52:52.387Z,95840.59
2019-04-06T07:58:50.761Z,95837.71
2019-04-06T08:30:07.141Z,95825.41
2019-04-06T08:35:03.240Z,95813.17
2019-04-06T08:39:59.097Z,95807.86
2019-04-06T08:44:55.080Z,95803.15
2019-04-06T08:49:50.953Z,95803.55
2019-04-06T08:54:46.925Z,95794.08
2019-04-06T08:59:42.949Z,95783.91
2019-04-06T09:04:39.046Z,95778.63
2019-04-06T09:09:34.835Z,95770.70
2019-04-06T09:14:30.890Z,95761.25
2019-04-06T09:19:29.856Z,95751.50
2019-04-06T09:24:25.897Z,95744.31
2019-04-06T09:29:23.865Z,95743.26
2019-04-06T09:34:22.754Z,95724.91
2019-04-06T09:39:18.881Z,95722.64
2019-04-06T09:44:24.070Z,95720.27
2019-04-06T09:49:41.661Z,95716.30
2019-04-06T09:54:55.119Z,95714.16
2019-04-06T10:00:09.902Z,95713.95
2019-04-06T10:05:16.076Z,95712.20
2019-04-06T10:10:47.075Z,95699.27
2019-04-06T10:16:04.898Z,95687.47
2019-04-06T10:21:20.886Z,95679.53
2019-04-06T10:26:35.609Z,95679.39
2019-04-06T10:31:47.024Z,95687.70
2019-04-06T10:37:10.947Z,95689.77
2019-04-06T10:42:24.194Z,95678.38
2019-04-06T10:47:38.872Z,95672.13
2019-04-06T10:52:53.601Z,95669.41
2019-04-06T10:58:07.223Z,95663.66
2019-04-06T11:03:27.825Z,95656.48
2019-04-06T11:08:42.489Z,95655.30
2019-04-06T11:13:57.364Z,95661.78
2019-04-06T11:19:18.375Z,95654.05
2019-04-06T11:24:36.007Z,95646.38
2019-04-06T11:29:49.249Z,95631.84
2019-04-06T11:35:06.960Z,95635.02
2019-04-06T11:40:20.348Z,95620.54
2019-04-06T11:45:32.074Z,95619.05
2019-04-06T11:50:41.803Z,95609.86
2019-04-06T11:56:02.783Z,95605.58
2019-04-06T12:01:07.510Z,95596.69
2019-04-06T12:06:21.031Z,95589.58
2019-04-06T12:11:42.310Z,95582.66
2019-04-06T12:16:55.482Z,95580.81
2019-04-06T12:22:09.956Z,95578.30
2019-04-06T12:27:19.102Z,95578.76
2019-04-06T12:32:46.149Z,95578.95
2019-04-06T12:37:56.035Z,95571.24
2019-04-06T12:43:23.334Z,95574.03
2019-04-06T12:48:41.489Z,95583.17
2019-04-06T12:53:56.162Z,95565.25
2019-04-06T12:59:09.875Z,95583.53
2019-04-06T13:04:28.660Z,95581.28
2019-04-06T13:09:39.260Z,95573.30
2019-04-06T13:14:47.387Z,95567.98
2019-04-06T13:20:02.414Z,95563.34
2019-04-06T13:25:05.926Z,95557.20
2019-04-06T13:30:24.049Z,95555.16
2019-04-06T13:35:29.426Z,95552.91
2019-04-06T13:40:42.799Z,95552.70
2019-04-06T13:45:56.768Z,95559.58
2019-04-06T13:51:11.581Z,95559.67
2019-04-06T13:56:40.989Z,95547.69
2019-04-06T14:01:48.630Z,95548.23
2019-04-06T14:07:11.329Z,95541.91
2019-04-06T14:12:26.179Z,95528.55
2019-04-06T14:17:44.178Z,95531.95
2019-04-06T14:22:52.760Z,95529.24
2019-04-06T14:28:08.611Z,95522.91
2019-04-06T14:33:23.012Z,95516.87
2019-04-06T14:38:30.095Z,95502.09
2019-04-06T14:43:43.460Z,95512.28
2019-04-06T14:49:13.874Z,95505.80
2019-04-06T14:54:31.234Z,95502.03
2019-04-06T14:59:45.131Z,95502.98
2019-04-06T15:04:53.360Z,95512.59
2019-04-06T15:10:33.904Z,95515.44
2019-04-06T15:15:54.305Z,95508.58
2019-04-06T15:21:15.542Z,95509.63
2019-04-06T15:27:11.392Z,95503.25
2019-04-06T15:33:31.008Z,95495.41
2019-04-06T15:39:16.697Z,95498.70
2019-04-06T15:44:32.868Z,95490.95
2019-04-06T15:50:27.086Z,95486.56
2019-04-06T15:56:06.918Z,95486.91
2019-04-06T16:01:59.562Z,95478.12
2019-04-06T16:07:41.064Z,95493.11
2019-04-06T16:12:56.105Z,95498.52
2019-04-06T16:18:17.133Z,95495.31
2019-04-06T16:23:29.131Z,95490.41
2019-04-06T16:28:57.504Z,95494.37
2019-04-06T16:34:16.723Z,95502.76
2019-04-06T16:40:06.902Z,95495.70
2019-04-06T16:57:42.243Z,95499.84
2019-04-06T17:02:51.773Z,95494.73
2019-04-06T17:08:10.544Z,95501.30
2019-04-06T17:13:40.728Z,95498.00
2019-04-06T17:19:13.607Z,95502.26
2019-04-06T17:24:28.451Z,95494.19
2019-04-06T17:29:51.891Z,95495.64
2019-04-06T17:35:10.324Z,95502.49
2019-04-06T17:40:27.561Z,95506.55
2019-04-06T17:45:41.765Z,95513.31
2019-04-06T17:51:32.064Z,95512.58
2019-04-06T17:57:17.424Z,95521.34
2019-04-06T18:02:48.348Z,95524.64
2019-04-06T18:08:11.000Z,95540.72
2019-04-06T18:13:44.296Z,95530.34
2019-04-06T18:18:46.808Z,95549.80
2019-04-06T18:24:00.252Z,95552.81
2019-04-06T18:28:56.226Z,95555.61
2019-04-06T18:34:02.881Z,95555.50
2019-04-06T18:39:13.926Z,95555.89
2019-04-06T18:44:18.644Z,95559.64
2019-04-06T18:49:19.585Z,95561.90
2019-04-06T18:54:17.309Z,95572.09
2019-04-06T18:59:13.431Z,95566.73
2019-04-06T19:04:12.076Z,95564.23
2019-04-06T19:09:22.276Z,95572.98
2019-04-06T19:14:11.422Z,95578.92
2019-04-06T19:19:11.837Z,95575.30
2019-04-06T19:24:19.502Z,95579.41
2019-04-06T19:29:16.066Z,95576.30
2019-04-06T19:34:21.581Z,95582.52
2019-04-06T19:39:17.524Z,95584.42
2019-04-06T19:44:13.537Z,95589.42
2019-04-06T19:49:09.540Z,95588.42
2019-04-06T19:54:06.457Z,95586.85
2019-04-06T19:59:02.970Z,95587.45
2019-04-06T20:03:59.160Z,95579.54
2019-04-06T20:08:55.106Z,95578.27
2019-04-06T20:13:50.911Z,95584.31
2019-04-06T20:18:46.921Z,95584.31
2019-04-06T20:23:42.971Z,95588.91
2019-04-06T20:28:39.027Z,95583.69
2019-04-06T20:33:45.988Z,95579.63
2019-04-06T20:38:32.447Z,95584.73
2019-04-06T20:43:28.717Z,95586.77
2019-04-06T20:48:25.727Z,95595.20
2019-04-06T20:53:35.520Z,95597.63
2019-04-06T20:58:45.591Z,95590.88
2019-04-06T21:03:58.829Z,95594.87
2019-04-06T21:09:08.762Z,95596.80
2019-04-06T21:21:11.838Z,95602.69
2019-04-06T21:32:52.466Z,95615.24
2019-04-06T21:38:04.070Z,95614.83
2019-04-06T21:43:00.112Z,95618.49
2019-04-06T21:47:56.017Z,95603.18
2019-04-06T21:52:51.964Z,95608.06
2019-04-06T21:58:00.397Z,95605.46
2019-04-06T22:03:02.936Z,95606.86
2019-04-06T22:08:13.074Z,95606.56
2019-04-06T22:13:10.496Z,95609.56
2019-04-06T22:18:06.631Z,95615.20
2019-04-06T22:23:02.852Z,95611.72
2019-04-06T22:27:58.754Z,95604.73
2019-04-06T22:32:55.040Z,95609.48
2019-04-06T22:37:51.485Z,95603.89
2019-04-06T22:42:48.712Z,95599.28
2019-04-06T22:47:45.160Z,95605.11
2019-04-06T22:52:41.306Z,95609.73
2019-04-06T22:57:37.344Z,95611.59
2019-04-06T23:02:46.886Z,95610.42
2019-04-06T23:07:42.970Z,95608.67
2019-04-06T23:12:40.906Z,95611.42
2019-04-06T23:17:36.824Z,95613.27
2019-04-06T23:22:34.540Z,95624.20
2019-04-06T23:27:30.807Z,95623.72
2019-04-06T23:32:26.627Z,95630.66
2019-04-06T23:37:22.443Z,95631.02
2019-04-06T23:42:18.363Z,95639.61
2019-04-06T23:47:14.709Z,95648.27
2019-04-06T23:52:10.528Z,95643.48
2019-04-06T23:57:07.510Z,95655.30
